sensor_id;sensor_type;location;lat;lon;timestamp;temperature;humidity
52509;DHT22;38420;53.150;6.370;2022-08-03T00:01:17;19.10;99.90
52509;DHT22;38420;53.150;6.370;2022-08-03T00:03:43;19.00;99.90
52509;DHT22;38420;53.150;6.370;2022-08-03T00:06:09;19.10;99.90
52509;DHT22;38420;53.150;6.370;2022-08-03T00:08:34;19.10;99.90
52509;DHT22;38420;53.150;6.370;2022-08-03T00:11:00;18.90;99.90
52509;DHT22;38420;53.150;6.370;2022-08-03T00:13:26;19.00;99.90
52509;DHT22;38420;53.150;6.370;2022-08-03T00:15:51;19.20;99.90
52509;DHT22;38420;53.150;6.370;2022-08-03T00:18:17;19.00;99.90
52509;DHT22;38420;53.150;6.370;2022-08-03T00:20:43;19.00;99.90
52509;DHT22;38420;53.150;6.370;2022-08-03T00:23:08;19.00;99.90
52509;DHT22;38420;53.150;6.370;2022-08-03T00:25:34;18.90;99.90
52509;DHT22;38420;53.150;6.370;2022-08-03T00:28:00;18.80;99.90
52509;DHT22;38420;53.150;6.370;2022-08-03T00:30:26;18.90;99.90
52509;DHT22;38420;53.150;6.370;2022-08-03T00:32:52;18.90;99.90
52509;DHT22;38420;53.150;6.370;2022-08-03T00:35:18;18.90;99.90
52509;DHT22;38420;53.150;6.370;2022-08-03T00:37:43;18.80;99.90
52509;DHT22;38420;53.150;6.370;2022-08-03T00:40:13;18.80;99.90
52509;DHT22;38420;53.150;6.370;2022-08-03T00:42:49;18.80;99.90
52509;DHT22;38420;53.150;6.370;2022-08-03T00:45:17;18.70;99.90
52509;DHT22;38420;53.150;6.370;2022-08-03T00:47:43;19.10;99.90
52509;DHT22;38420;53.150;6.370;2022-08-03T00:50:09;18.70;99.90
52509;DHT22;38420;53.150;6.370;2022-08-03T00:52:35;18.60;99.90
52509;DHT22;38420;53.150;6.370;2022-08-03T00:55:01;18.50;99.90
52509;DHT22;38420;53.150;6.370;2022-08-03T00:57:27;18.60;99.90
52509;DHT22;38420;53.150;6.370;2022-08-03T00:59:54;18.50;99.90
52509;DHT22;38420;53.150;6.370;2022-08-03T01:02:20;18.60;99.90
52509;DHT22;38420;53.150;6.370;2022-08-03T01:04:45;18.60;99.90
52509;DHT22;38420;53.150;6.370;2022-08-03T01:07:15;18.50;99.90
52509;DHT22;38420;53.150;6.370;2022-08-03T01:09:50;18.60;99.90
52509;DHT22;38420;53.150;6.370;2022-08-03T01:12:28;18.50;99.90
52509;DHT22;38420;53.150;6.370;2022-08-03T01:14:58;18.40;99.90
52509;DHT22;38420;53.150;6.370;2022-08-03T01:17:33;18.50;99.90
52509;DHT22;38420;53.150;6.370;2022-08-03T01:20:07;18.40;99.90
52509;DHT22;38420;53.150;6.370;2022-08-03T01:25:31;18.30;99.90
52509;DHT22;38420;53.150;6.370;2022-08-03T01:30:34;18.40;99.90
52509;DHT22;38420;53.150;6.370;2022-08-03T01:33:02;18.30;99.90
52509;DHT22;38420;53.150;6.370;2022-08-03T01:35:37;18.40;99.90
52509;DHT22;38420;53.150;6.370;2022-08-03T01:38:05;18.30;99.90
52509;DHT22;38420;53.150;6.370;2022-08-03T01:40:31;18.40;99.90
52509;DHT22;38420;53.150;6.370;2022-08-03T01:42:59;18.40;99.90
52509;DHT22;38420;53.150;6.370;2022-08-03T01:45:26;18.40;99.90
52509;DHT22;38420;53.150;6.370;2022-08-03T01:47:52;18.40;99.90
52509;DHT22;38420;53.150;6.370;2022-08-03T01:50:21;18.30;99.90
52509;DHT22;38420;53.150;6.370;2022-08-03T01:52:47;18.40;99.90
52509;DHT22;38420;53.150;6.370;2022-08-03T01:55:13;18.40;99.90
52509;DHT22;38420;53.150;6.370;2022-08-03T01:57:41;18.30;99.90
52509;DHT22;38420;53.150;6.370;2022-08-03T02:00:07;18.40;99.90
52509;DHT22;38420;53.150;6.370;2022-08-03T02:02:36;18.50;99.90
52509;DHT22;38420;53.150;6.370;2022-08-03T02:05:03;18.40;99.90
52509;DHT22;38420;53.150;6.370;2022-08-03T02:07:30;18.40;99.90
52509;DHT22;38420;53.150;6.370;2022-08-03T02:09:57;18.30;99.90
52509;DHT22;38420;53.150;6.370;2022-08-03T02:12:23;18.30;99.90
52509;DHT22;38420;53.150;6.370;2022-08-03T02:14:49;18.30;99.90
52509;DHT22;38420;53.150;6.370;2022-08-03T02:17:16;19.00;99.90
52509;DHT22;38420;53.150;6.370;2022-08-03T02:19:43;18.50;99.90
52509;DHT22;38420;53.150;6.370;2022-08-03T02:22:10;18.40;99.90
52509;DHT22;38420;53.150;6.370;2022-08-03T02:24:36;18.60;99.90
52509;DHT22;38420;53.150;6.370;2022-08-03T02:27:02;18.50;99.90
52509;DHT22;38420;53.150;6.370;2022-08-03T02:29:31;18.40;99.90
52509;DHT22;38420;53.150;6.370;2022-08-03T02:31:57;18.50;99.90
52509;DHT22;38420;53.150;6.370;2022-08-03T02:34:24;18.40;99.90
52509;DHT22;38420;53.150;6.370;2022-08-03T02:36:52;18.50;99.90
52509;DHT22;38420;53.150;6.370;2022-08-03T02:39:20;18.50;99.90
52509;DHT22;38420;53.150;6.370;2022-08-03T02:41:51;18.40;99.90
52509;DHT22;38420;53.150;6.370;2022-08-03T02:44:19;18.40;99.90
52509;DHT22;38420;53.150;6.370;2022-08-03T02:46:46;18.50;99.90
52509;DHT22;38420;53.150;6.370;2022-08-03T02:49:14;18.30;99.90
52509;DHT22;38420;53.150;6.370;2022-08-03T02:51:40;18.30;99.90
52509;DHT22;38420;53.150;6.370;2022-08-03T02:54:06;18.40;99.90
52509;DHT22;38420;53.150;6.370;2022-08-03T02:56:33;18.40;99.90
52509;DHT22;38420;53.150;6.370;2022-08-03T02:58:59;18.20;99.90
52509;DHT22;38420;53.150;6.370;2022-08-03T03:01:26;18.40;99.90
52509;DHT22;38420;53.150;6.370;2022-08-03T03:03:53;18.20;99.90
52509;DHT22;38420;53.150;6.370;2022-08-03T03:06:19;18.20;99.90
52509;DHT22;38420;53.150;6.370;2022-08-03T03:08:45;18.30;99.90
52509;DHT22;38420;53.150;6.370;2022-08-03T03:11:12;18.30;99.90
52509;DHT22;38420;53.150;6.370;2022-08-03T03:13:38;18.50;99.90
52509;DHT22;38420;53.150;6.370;2022-08-03T03:16:04;18.10;99.90
52509;DHT22;38420;53.150;6.370;2022-08-03T03:18:30;18.30;99.90
52509;DHT22;38420;53.150;6.370;2022-08-03T03:20:57;18.20;99.90
52509;DHT22;38420;53.150;6.370;2022-08-03T03:23:23;18.20;99.90
52509;DHT22;38420;53.150;6.370;2022-08-03T03:25:49;18.20;99.90
52509;DHT22;38420;53.150;6.370;2022-08-03T03:28:15;18.10;99.90
52509;DHT22;38420;53.150;6.370;2022-08-03T03:30:41;18.00;99.90
52509;DHT22;38420;53.150;6.370;2022-08-03T03:33:07;18.10;99.90
52509;DHT22;38420;53.150;6.370;2022-08-03T03:35:32;18.10;99.90
52509;DHT22;38420;53.150;6.370;2022-08-03T03:37:58;18.30;99.90
52509;DHT22;38420;53.150;6.370;2022-08-03T03:40:24;18.10;99.90
52509;DHT22;38420;53.150;6.370;2022-08-03T03:42:50;18.10;99.90
52509;DHT22;38420;53.150;6.370;2022-08-03T03:45:16;18.10;99.90
52509;DHT22;38420;53.150;6.370;2022-08-03T03:47:42;18.20;99.90
52509;DHT22;38420;53.150;6.370;2022-08-03T03:50:07;18.10;99.90
52509;DHT22;38420;53.150;6.370;2022-08-03T03:52:35;18.10;99.90
52509;DHT22;38420;53.150;6.370;2022-08-03T03:55:00;18.10;99.90
52509;DHT22;38420;53.150;6.370;2022-08-03T03:57:26;17.90;99.90
52509;DHT22;38420;53.150;6.370;2022-08-03T03:59:52;18.00;99.90
52509;DHT22;38420;53.150;6.370;2022-08-03T04:02:17;18.00;99.90
52509;DHT22;38420;53.150;6.370;2022-08-03T04:04:43;18.10;99.90
52509;DHT22;38420;53.150;6.370;2022-08-03T04:07:27;18.00;99.90
52509;DHT22;38420;53.150;6.370;2022-08-03T04:10:19;18.00;99.90
52509;DHT22;38420;53.150;6.370;2022-08-03T04:13:05;18.10;99.90
52509;DHT22;38420;53.150;6.370;2022-08-03T04:15:34;18.30;99.90
52509;DHT22;38420;53.150;6.370;2022-08-03T04:18:00;17.90;99.90
52509;DHT22;38420;53.150;6.370;2022-08-03T04:20:28;18.00;99.90
52509;DHT22;38420;53.150;6.370;2022-08-03T04:22:54;18.00;99.90
52509;DHT22;38420;53.150;6.370;2022-08-03T04:25:21;18.00;99.90
52509;DHT22;38420;53.150;6.370;2022-08-03T04:27:48;17.90;99.90
52509;DHT22;38420;53.150;6.370;2022-08-03T04:30:16;18.00;99.90
52509;DHT22;38420;53.150;6.370;2022-08-03T04:32:42;17.90;99.90
52509;DHT22;38420;53.150;6.370;2022-08-03T04:35:12;18.00;99.90
52509;DHT22;38420;53.150;6.370;2022-08-03T04:37:39;18.10;99.90
52509;DHT22;38420;53.150;6.370;2022-08-03T04:40:07;18.50;99.90
52509;DHT22;38420;53.150;6.370;2022-08-03T04:42:33;18.10;99.90
52509;DHT22;38420;53.150;6.370;2022-08-03T04:44:59;18.10;99.90
52509;DHT22;38420;53.150;6.370;2022-08-03T04:47:26;18.10;99.90
52509;DHT22;38420;53.150;6.370;2022-08-03T04:49:52;18.20;99.90
52509;DHT22;38420;53.150;6.370;2022-08-03T04:52:18;18.20;99.90
52509;DHT22;38420;53.150;6.370;2022-08-03T04:54:44;18.20;99.90
52509;DHT22;38420;53.150;6.370;2022-08-03T04:57:10;18.10;99.90
52509;DHT22;38420;53.150;6.370;2022-08-03T04:59:35;18.30;99.90
52509;DHT22;38420;53.150;6.370;2022-08-03T05:02:01;18.20;99.90
52509;DHT22;38420;53.150;6.370;2022-08-03T05:04:27;18.40;99.90
52509;DHT22;38420;53.150;6.370;2022-08-03T05:06:52;18.20;99.90
52509;DHT22;38420;53.150;6.370;2022-08-03T05:09:18;18.40;99.90
52509;DHT22;38420;53.150;6.370;2022-08-03T05:11:44;18.40;99.90
52509;DHT22;38420;53.150;6.370;2022-08-03T05:14:10;18.40;99.90
52509;DHT22;38420;53.150;6.370;2022-08-03T05:16:35;18.20;99.90
52509;DHT22;38420;53.150;6.370;2022-08-03T05:19:01;18.30;99.90
52509;DHT22;38420;53.150;6.370;2022-08-03T05:21:27;18.30;99.90
52509;DHT22;38420;53.150;6.370;2022-08-03T05:23:52;18.50;99.90
52509;DHT22;38420;53.150;6.370;2022-08-03T05:26:18;18.50;99.90
52509;DHT22;38420;53.150;6.370;2022-08-03T05:28:43;18.70;99.90
52509;DHT22;38420;53.150;6.370;2022-08-03T05:31:09;18.60;99.90
52509;DHT22;38420;53.150;6.370;2022-08-03T05:33:35;18.50;99.90
52509;DHT22;38420;53.150;6.370;2022-08-03T05:36:00;18.50;99.90
52509;DHT22;38420;53.150;6.370;2022-08-03T05:38:26;18.60;99.90
52509;DHT22;38420;53.150;6.370;2022-08-03T05:40:51;18.80;99.90
52509;DHT22;38420;53.150;6.370;2022-08-03T05:43:17;18.70;99.90
52509;DHT22;38420;53.150;6.370;2022-08-03T05:45:42;18.80;99.90
52509;DHT22;38420;53.150;6.370;2022-08-03T05:48:08;18.80;99.90
52509;DHT22;38420;53.150;6.370;2022-08-03T05:50:33;19.00;99.90
52509;DHT22;38420;53.150;6.370;2022-08-03T05:53:00;19.00;99.90
52509;DHT22;38420;53.150;6.370;2022-08-03T05:55:26;19.00;99.90
52509;DHT22;38420;53.150;6.370;2022-08-03T05:57:52;19.10;99.90
52509;DHT22;38420;53.150;6.370;2022-08-03T06:00:17;18.90;99.90
52509;DHT22;38420;53.150;6.370;2022-08-03T06:02:43;19.00;99.90
52509;DHT22;38420;53.150;6.370;2022-08-03T06:05:08;19.20;99.90
52509;DHT22;38420;53.150;6.370;2022-08-03T06:07:34;19.30;99.90
52509;DHT22;38420;53.150;6.370;2022-08-03T06:10:00;19.30;99.90
52509;DHT22;38420;53.150;6.370;2022-08-03T06:12:28;19.30;99.90
52509;DHT22;38420;53.150;6.370;2022-08-03T06:14:55;19.30;99.90
52509;DHT22;38420;53.150;6.370;2022-08-03T06:17:20;19.50;99.90
52509;DHT22;38420;53.150;6.370;2022-08-03T06:19:46;19.60;99.90
52509;DHT22;38420;53.150;6.370;2022-08-03T06:22:11;19.40;99.90
52509;DHT22;38420;53.150;6.370;2022-08-03T06:24:37;20.10;99.90
52509;DHT22;38420;53.150;6.370;2022-08-03T06:27:02;19.50;99.90
52509;DHT22;38420;53.150;6.370;2022-08-03T06:29:29;19.60;99.90
52509;DHT22;38420;53.150;6.370;2022-08-03T06:31:55;19.80;99.90
52509;DHT22;38420;53.150;6.370;2022-08-03T06:34:21;19.80;99.90
52509;DHT22;38420;53.150;6.370;2022-08-03T06:36:46;19.90;99.90
52509;DHT22;38420;53.150;6.370;2022-08-03T06:39:14;19.80;99.90
52509;DHT22;38420;53.150;6.370;2022-08-03T06:41:39;20.00;99.90
52509;DHT22;38420;53.150;6.370;2022-08-03T06:44:05;19.90;99.90
52509;DHT22;38420;53.150;6.370;2022-08-03T06:46:30;20.00;99.90
52509;DHT22;38420;53.150;6.370;2022-08-03T06:48:56;20.10;99.90
52509;DHT22;38420;53.150;6.370;2022-08-03T06:51:21;20.20;99.90
52509;DHT22;38420;53.150;6.370;2022-08-03T06:53:48;20.20;99.90
52509;DHT22;38420;53.150;6.370;2022-08-03T06:56:13;20.30;99.90
52509;DHT22;38420;53.150;6.370;2022-08-03T06:58:39;20.30;99.90
52509;DHT22;38420;53.150;6.370;2022-08-03T07:01:04;20.40;99.90
52509;DHT22;38420;53.150;6.370;2022-08-03T07:03:30;20.40;99.90
52509;DHT22;38420;53.150;6.370;2022-08-03T07:05:55;20.60;99.90
52509;DHT22;38420;53.150;6.370;2022-08-03T07:08:21;20.60;99.90
52509;DHT22;38420;53.150;6.370;2022-08-03T07:10:46;20.60;99.90
52509;DHT22;38420;53.150;6.370;2022-08-03T07:13:12;20.70;99.90
52509;DHT22;38420;53.150;6.370;2022-08-03T07:15:38;20.70;99.90
52509;DHT22;38420;53.150;6.370;2022-08-03T07:18:04;20.80;99.90
52509;DHT22;38420;53.150;6.370;2022-08-03T07:20:29;20.90;99.90
52509;DHT22;38420;53.150;6.370;2022-08-03T07:22:55;21.00;99.90
52509;DHT22;38420;53.150;6.370;2022-08-03T07:25:20;21.00;99.90
52509;DHT22;38420;53.150;6.370;2022-08-03T07:27:47;21.10;99.90
52509;DHT22;38420;53.150;6.370;2022-08-03T07:30:13;21.30;99.90
52509;DHT22;38420;53.150;6.370;2022-08-03T07:32:39;21.30;99.90
52509;DHT22;38420;53.150;6.370;2022-08-03T07:35:05;21.90;99.90
52509;DHT22;38420;53.150;6.370;2022-08-03T07:37:31;21.50;99.90
52509;DHT22;38420;53.150;6.370;2022-08-03T07:39:58;21.60;99.90
52509;DHT22;38420;53.150;6.370;2022-08-03T07:42:24;21.70;99.90
52509;DHT22;38420;53.150;6.370;2022-08-03T07:44:49;21.80;99.90
52509;DHT22;38420;53.150;6.370;2022-08-03T07:47:25;21.80;99.90
52509;DHT22;38420;53.150;6.370;2022-08-03T07:49:51;22.00;99.90
52509;DHT22;38420;53.150;6.370;2022-08-03T07:52:17;22.00;99.90
52509;DHT22;38420;53.150;6.370;2022-08-03T07:55:01;22.00;99.90
52509;DHT22;38420;53.150;6.370;2022-08-03T07:57:27;22.20;99.90
52509;DHT22;38420;53.150;6.370;2022-08-03T07:59:52;22.30;99.90
52509;DHT22;38420;53.150;6.370;2022-08-03T08:02:18;22.80;99.90
52509;DHT22;38420;53.150;6.370;2022-08-03T08:04:43;23.50;99.90
52509;DHT22;38420;53.150;6.370;2022-08-03T08:07:09;24.30;99.90
52509;DHT22;38420;53.150;6.370;2022-08-03T08:09:34;25.00;99.90
52509;DHT22;38420;53.150;6.370;2022-08-03T08:12:00;25.50;99.90
52509;DHT22;38420;53.150;6.370;2022-08-03T08:14:25;25.80;99.90
52509;DHT22;38420;53.150;6.370;2022-08-03T08:16:51;26.20;99.90
52509;DHT22;38420;53.150;6.370;2022-08-03T08:19:16;26.40;99.90
52509;DHT22;38420;53.150;6.370;2022-08-03T08:21:42;26.70;99.90
52509;DHT22;38420;53.150;6.370;2022-08-03T08:24:08;27.00;99.90
52509;DHT22;38420;53.150;6.370;2022-08-03T08:26:34;27.20;99.90
52509;DHT22;38420;53.150;6.370;2022-08-03T08:29:00;27.40;99.90
52509;DHT22;38420;53.150;6.370;2022-08-03T08:31:25;27.30;99.90
52509;DHT22;38420;53.150;6.370;2022-08-03T08:33:51;27.60;99.90
52509;DHT22;38420;53.150;6.370;2022-08-03T08:36:16;28.20;99.90
52509;DHT22;38420;53.150;6.370;2022-08-03T08:38:42;28.20;99.90
52509;DHT22;38420;53.150;6.370;2022-08-03T08:41:12;28.30;99.90
52509;DHT22;38420;53.150;6.370;2022-08-03T08:43:38;28.30;99.90
52509;DHT22;38420;53.150;6.370;2022-08-03T08:46:04;28.10;99.90
52509;DHT22;38420;53.150;6.370;2022-08-03T08:48:32;27.70;99.90
52509;DHT22;38420;53.150;6.370;2022-08-03T08:51:00;27.70;99.90
52509;DHT22;38420;53.150;6.370;2022-08-03T08:53:27;28.10;99.90
52509;DHT22;38420;53.150;6.370;2022-08-03T08:55:54;27.90;99.90
52509;DHT22;38420;53.150;6.370;2022-08-03T08:58:20;28.10;99.90
52509;DHT22;38420;53.150;6.370;2022-08-03T09:00:47;28.20;99.90
52509;DHT22;38420;53.150;6.370;2022-08-03T09:03:13;28.20;99.90
52509;DHT22;38420;53.150;6.370;2022-08-03T09:05:41;27.90;99.90
52509;DHT22;38420;53.150;6.370;2022-08-03T09:08:07;27.80;99.90
52509;DHT22;38420;53.150;6.370;2022-08-03T09:10:33;27.60;99.90
52509;DHT22;38420;53.150;6.370;2022-08-03T09:12:59;27.50;99.90
52509;DHT22;38420;53.150;6.370;2022-08-03T09:15:25;27.80;99.90
52509;DHT22;38420;53.150;6.370;2022-08-03T09:17:54;27.80;99.90
52509;DHT22;38420;53.150;6.370;2022-08-03T09:20:21;27.30;99.90
52509;DHT22;38420;53.150;6.370;2022-08-03T09:25:15;27.10;99.90
52509;DHT22;38420;53.150;6.370;2022-08-03T09:27:41;27.10;99.90
52509;DHT22;38420;53.150;6.370;2022-08-03T09:30:15;26.70;99.90
52509;DHT22;38420;53.150;6.370;2022-08-03T09:32:40;26.30;99.90
52509;DHT22;38420;53.150;6.370;2022-08-03T09:35:06;26.00;99.90
52509;DHT22;38420;53.150;6.370;2022-08-03T09:37:32;25.90;99.90
52509;DHT22;38420;53.150;6.370;2022-08-03T09:39:58;25.90;99.90
52509;DHT22;38420;53.150;6.370;2022-08-03T09:42:23;25.90;99.90
52509;DHT22;38420;53.150;6.370;2022-08-03T09:44:51;25.90;99.90
52509;DHT22;38420;53.150;6.370;2022-08-03T09:47:27;26.00;99.90
52509;DHT22;38420;53.150;6.370;2022-08-03T09:49:59;26.10;99.90
52509;DHT22;38420;53.150;6.370;2022-08-03T09:52:32;26.10;99.90
52509;DHT22;38420;53.150;6.370;2022-08-03T09:54:58;26.20;99.90
52509;DHT22;38420;53.150;6.370;2022-08-03T09:57:25;26.20;99.90
52509;DHT22;38420;53.150;6.370;2022-08-03T09:59:52;26.20;99.90
52509;DHT22;38420;53.150;6.370;2022-08-03T10:02:19;26.30;99.90
52509;DHT22;38420;53.150;6.370;2022-08-03T10:04:48;26.40;99.90
52509;DHT22;38420;53.150;6.370;2022-08-03T10:07:17;26.40;99.90
52509;DHT22;38420;53.150;6.370;2022-08-03T10:09:53;26.40;99.90
52509;DHT22;38420;53.150;6.370;2022-08-03T10:12:19;26.30;99.90
52509;DHT22;38420;53.150;6.370;2022-08-03T10:14:44;26.40;99.90
52509;DHT22;38420;53.150;6.370;2022-08-03T10:17:11;26.50;99.90
52509;DHT22;38420;53.150;6.370;2022-08-03T10:19:36;26.40;99.90
52509;DHT22;38420;53.150;6.370;2022-08-03T10:22:05;26.30;99.90
52509;DHT22;38420;53.150;6.370;2022-08-03T10:24:34;26.20;99.90
52509;DHT22;38420;53.150;6.370;2022-08-03T10:27:02;26.20;99.90
52509;DHT22;38420;53.150;6.370;2022-08-03T10:29:28;26.30;99.90
52509;DHT22;38420;53.150;6.370;2022-08-03T10:31:55;26.30;99.90
52509;DHT22;38420;53.150;6.370;2022-08-03T10:34:23;26.40;99.90
52509;DHT22;38420;53.150;6.370;2022-08-03T10:36:50;26.40;99.90
52509;DHT22;38420;53.150;6.370;2022-08-03T10:39:18;26.40;99.90
52509;DHT22;38420;53.150;6.370;2022-08-03T10:41:45;26.50;99.90
52509;DHT22;38420;53.150;6.370;2022-08-03T10:44:14;26.70;99.90
52509;DHT22;38420;53.150;6.370;2022-08-03T10:46:42;26.70;99.90
52509;DHT22;38420;53.150;6.370;2022-08-03T10:49:09;26.80;99.90
52509;DHT22;38420;53.150;6.370;2022-08-03T10:51:36;26.80;99.90
52509;DHT22;38420;53.150;6.370;2022-08-03T10:54:02;26.90;99.90
52509;DHT22;38420;53.150;6.370;2022-08-03T10:59:15;27.00;99.90
52509;DHT22;38420;53.150;6.370;2022-08-03T11:01:54;27.00;99.90
52509;DHT22;38420;53.150;6.370;2022-08-03T11:04:20;26.90;99.90
52509;DHT22;38420;53.150;6.370;2022-08-03T11:06:52;26.90;99.90
52509;DHT22;38420;53.150;6.370;2022-08-03T11:09:40;27.00;99.90
52509;DHT22;38420;53.150;6.370;2022-08-03T11:12:19;27.00;99.90
52509;DHT22;38420;53.150;6.370;2022-08-03T11:14:46;27.00;99.90
52509;DHT22;38420;53.150;6.370;2022-08-03T11:17:12;27.00;99.90
52509;DHT22;38420;53.150;6.370;2022-08-03T11:19:50;27.10;99.90
52509;DHT22;38420;53.150;6.370;2022-08-03T11:22:16;27.20;99.90
52509;DHT22;38420;53.150;6.370;2022-08-03T11:30:43;27.30;99.90
52509;DHT22;38420;53.150;6.370;2022-08-03T11:35:23;27.40;99.90
52509;DHT22;38420;53.150;6.370;2022-08-03T11:45:59;27.30;99.90
52509;DHT22;38420;53.150;6.370;2022-08-03T11:48:37;27.30;99.90
52509;DHT22;38420;53.150;6.370;2022-08-03T11:51:03;27.50;99.90
52509;DHT22;38420;53.150;6.370;2022-08-03T11:53:29;27.50;99.90
52509;DHT22;38420;53.150;6.370;2022-08-03T11:55:57;27.50;99.90
52509;DHT22;38420;53.150;6.370;2022-08-03T11:58:23;27.50;99.90
52509;DHT22;38420;53.150;6.370;2022-08-03T12:00:49;27.50;99.90
52509;DHT22;38420;53.150;6.370;2022-08-03T12:03:16;27.50;99.90
52509;DHT22;38420;53.150;6.370;2022-08-03T12:05:43;27.50;99.90
52509;DHT22;38420;53.150;6.370;2022-08-03T12:08:10;27.50;99.90
52509;DHT22;38420;53.150;6.370;2022-08-03T12:10:36;27.60;99.90
52509;DHT22;38420;53.150;6.370;2022-08-03T12:13:03;27.60;99.90
52509;DHT22;38420;53.150;6.370;2022-08-03T12:15:33;27.60;99.90
52509;DHT22;38420;53.150;6.370;2022-08-03T12:18:00;27.60;99.90
52509;DHT22;38420;53.150;6.370;2022-08-03T12:20:26;27.60;99.90
52509;DHT22;38420;53.150;6.370;2022-08-03T12:22:52;27.70;99.90
52509;DHT22;38420;53.150;6.370;2022-08-03T12:25:24;27.70;99.90
52509;DHT22;38420;53.150;6.370;2022-08-03T12:27:51;27.70;99.90
52509;DHT22;38420;53.150;6.370;2022-08-03T12:30:17;27.70;99.90
52509;DHT22;38420;53.150;6.370;2022-08-03T12:32:43;27.70;99.90
52509;DHT22;38420;53.150;6.370;2022-08-03T12:35:08;27.70;99.90
52509;DHT22;38420;53.150;6.370;2022-08-03T12:37:34;27.70;99.90
52509;DHT22;38420;53.150;6.370;2022-08-03T12:40:00;27.70;99.90
52509;DHT22;38420;53.150;6.370;2022-08-03T12:42:33;27.70;99.90
52509;DHT22;38420;53.150;6.370;2022-08-03T12:44:58;27.60;99.90
52509;DHT22;38420;53.150;6.370;2022-08-03T12:47:24;27.40;99.90
52509;DHT22;38420;53.150;6.370;2022-08-03T12:49:50;27.40;99.90
52509;DHT22;38420;53.150;6.370;2022-08-03T12:52:16;27.40;99.90
52509;DHT22;38420;53.150;6.370;2022-08-03T12:54:42;27.30;99.90
52509;DHT22;38420;53.150;6.370;2022-08-03T12:57:18;27.40;99.90
52509;DHT22;38420;53.150;6.370;2022-08-03T12:59:44;27.30;99.90
52509;DHT22;38420;53.150;6.370;2022-08-03T13:02:22;27.30;99.90
52509;DHT22;38420;53.150;6.370;2022-08-03T13:04:48;27.50;99.90
52509;DHT22;38420;53.150;6.370;2022-08-03T13:07:14;27.50;99.90
52509;DHT22;38420;53.150;6.370;2022-08-03T13:09:45;27.50;99.90
52509;DHT22;38420;53.150;6.370;2022-08-03T13:12:15;27.50;99.90
52509;DHT22;38420;53.150;6.370;2022-08-03T13:14:41;27.50;99.90
52509;DHT22;38420;53.150;6.370;2022-08-03T13:17:07;27.70;99.90
52509;DHT22;38420;53.150;6.370;2022-08-03T13:19:33;27.60;99.90
52509;DHT22;38420;53.150;6.370;2022-08-03T13:21:59;27.50;99.90
52509;DHT22;38420;53.150;6.370;2022-08-03T13:24:25;27.60;99.90
52509;DHT22;38420;53.150;6.370;2022-08-03T13:26:51;27.60;99.90
52509;DHT22;38420;53.150;6.370;2022-08-03T13:29:16;27.60;99.90
52509;DHT22;38420;53.150;6.370;2022-08-03T13:31:42;27.70;99.90
52509;DHT22;38420;53.150;6.370;2022-08-03T13:34:08;27.70;99.90
52509;DHT22;38420;53.150;6.370;2022-08-03T13:36:33;27.70;99.90
52509;DHT22;38420;53.150;6.370;2022-08-03T13:38:59;27.60;99.90
52509;DHT22;38420;53.150;6.370;2022-08-03T13:41:24;27.60;99.90
52509;DHT22;38420;53.150;6.370;2022-08-03T13:43:50;27.60;99.90
52509;DHT22;38420;53.150;6.370;2022-08-03T13:46:16;27.60;99.90
52509;DHT22;38420;53.150;6.370;2022-08-03T13:48:42;27.50;99.90
52509;DHT22;38420;53.150;6.370;2022-08-03T13:51:07;27.60;99.90
52509;DHT22;38420;53.150;6.370;2022-08-03T13:53:33;27.60;99.90
52509;DHT22;38420;53.150;6.370;2022-08-03T13:55:58;27.60;99.90
52509;DHT22;38420;53.150;6.370;2022-08-03T13:58:24;27.70;99.90
52509;DHT22;38420;53.150;6.370;2022-08-03T14:00:49;27.60;99.90
52509;DHT22;38420;53.150;6.370;2022-08-03T14:03:15;27.60;99.90
52509;DHT22;38420;53.150;6.370;2022-08-03T14:05:41;27.50;99.90
52509;DHT22;38420;53.150;6.370;2022-08-03T14:08:07;27.60;99.90
52509;DHT22;38420;53.150;6.370;2022-08-03T14:10:33;27.60;99.90
52509;DHT22;38420;53.150;6.370;2022-08-03T14:12:59;27.70;99.90
52509;DHT22;38420;53.150;6.370;2022-08-03T14:15:25;27.90;99.90
52509;DHT22;38420;53.150;6.370;2022-08-03T14:17:50;28.00;99.90
52509;DHT22;38420;53.150;6.370;2022-08-03T14:20:16;28.10;99.90
52509;DHT22;38420;53.150;6.370;2022-08-03T14:22:42;28.20;99.90
52509;DHT22;38420;53.150;6.370;2022-08-03T14:25:07;28.20;99.90
52509;DHT22;38420;53.150;6.370;2022-08-03T14:27:33;28.10;99.90
52509;DHT22;38420;53.150;6.370;2022-08-03T14:29:59;28.20;99.90
52509;DHT22;38420;53.150;6.370;2022-08-03T14:32:25;28.20;99.90
52509;DHT22;38420;53.150;6.370;2022-08-03T14:34:54;28.20;99.90
52509;DHT22;38420;53.150;6.370;2022-08-03T14:37:20;28.40;99.90
52509;DHT22;38420;53.150;6.370;2022-08-03T14:39:49;28.40;99.90
52509;DHT22;38420;53.150;6.370;2022-08-03T14:42:15;28.40;99.90
52509;DHT22;38420;53.150;6.370;2022-08-03T14:44:41;28.50;99.90
52509;DHT22;38420;53.150;6.370;2022-08-03T14:47:06;28.40;99.90
52509;DHT22;38420;53.150;6.370;2022-08-03T14:49:32;28.30;99.90
52509;DHT22;38420;53.150;6.370;2022-08-03T14:51:58;28.30;99.90
52509;DHT22;38420;53.150;6.370;2022-08-03T14:54:23;28.30;99.90
52509;DHT22;38420;53.150;6.370;2022-08-03T14:56:49;28.30;99.90
52509;DHT22;38420;53.150;6.370;2022-08-03T14:59:15;28.30;99.90
52509;DHT22;38420;53.150;6.370;2022-08-03T15:01:43;28.40;99.90
52509;DHT22;38420;53.150;6.370;2022-08-03T15:04:08;28.30;99.90
52509;DHT22;38420;53.150;6.370;2022-08-03T15:06:34;28.40;99.90
52509;DHT22;38420;53.150;6.370;2022-08-03T15:08:59;28.40;99.90
52509;DHT22;38420;53.150;6.370;2022-08-03T15:11:25;28.40;99.90
52509;DHT22;38420;53.150;6.370;2022-08-03T15:13:50;28.30;98.60
52509;DHT22;38420;53.150;6.370;2022-08-03T15:16:16;28.40;98.90
52509;DHT22;38420;53.150;6.370;2022-08-03T15:18:42;28.40;99.00
52509;DHT22;38420;53.150;6.370;2022-08-03T15:21:07;28.50;99.40
52509;DHT22;38420;53.150;6.370;2022-08-03T15:23:33;28.50;99.20
52509;DHT22;38420;53.150;6.370;2022-08-03T15:25:58;28.60;98.40
52509;DHT22;38420;53.150;6.370;2022-08-03T15:28:24;28.50;98.20
52509;DHT22;38420;53.150;6.370;2022-08-03T15:30:52;28.40;98.40
52509;DHT22;38420;53.150;6.370;2022-08-03T15:33:18;28.40;98.50
52509;DHT22;38420;53.150;6.370;2022-08-03T15:35:44;28.40;99.40
52509;DHT22;38420;53.150;6.370;2022-08-03T15:38:11;28.30;98.70
52509;DHT22;38420;53.150;6.370;2022-08-03T15:40:37;28.30;98.90
52509;DHT22;38420;53.150;6.370;2022-08-03T15:43:02;28.20;99.40
52509;DHT22;38420;53.150;6.370;2022-08-03T15:45:28;28.30;99.70
52509;DHT22;38420;53.150;6.370;2022-08-03T15:47:53;28.10;99.90
52509;DHT22;38420;53.150;6.370;2022-08-03T15:50:19;28.00;99.90
52509;DHT22;38420;53.150;6.370;2022-08-03T15:52:44;27.90;99.90
52509;DHT22;38420;53.150;6.370;2022-08-03T15:55:10;27.80;99.30